Shady Glen, California
Current Conditions -  °F | °C
As of 1:40 PM on Friday 24 Oct 2014 (Local Time) from KGOO Reporting Station
Clear Clear  
Wind Chill: 72°   Ceiling: Unl
Heat Index: 72°   Visibility: 10mi
Dew Point: 39°   Wind: 8mph
Humidity: 31%   Direction: 210°SSW
Pressure: 30.01"   Gusts: NA
Location:  39.0937°N, 120.92°W
Report Text: KGOO 242040Z AUTO 21007KT 10SM CLR 22/04 A3001 RMK AO1
Loading
Personal Weather Stations






























Interactive Weather Map
Tropical Storm Tracking
New forecast layout! Learn more

10-Day Weather Forecast

Advertisements
Track Severe Weather on mobile